createdAt,value
2019-03-08T00:00:26.651Z,990.91
2019-03-08T00:01:26.617Z,990.95
2019-03-08T00:02:26.570Z,990.79
2019-03-08T00:03:26.554Z,990.78
2019-03-08T00:04:26.530Z,990.78
2019-03-08T00:05:26.507Z,990.82
2019-03-08T00:06:26.484Z,990.94
2019-03-08T00:07:26.464Z,990.94
2019-03-08T00:08:26.450Z,991.36
2019-03-08T00:09:26.422Z,991.06
2019-03-08T00:10:26.406Z,991.11
2019-03-08T00:11:26.382Z,991.05
2019-03-08T00:12:26.362Z,990.96
2019-03-08T00:13:26.339Z,990.93
2019-03-08T00:14:26.321Z,990.98
2019-03-08T00:15:26.299Z,991.07
2019-03-08T00:16:26.278Z,991.09
2019-03-08T00:17:26.265Z,991.19
2019-03-08T00:18:26.237Z,991.06
2019-03-08T00:19:26.226Z,991.01
2019-03-08T00:20:26.195Z,991.01
2019-03-08T00:21:26.177Z,991.05
2019-03-08T00:22:26.155Z,991.14
2019-03-08T00:23:26.138Z,991.02
2019-03-08T00:24:26.119Z,991.19
2019-03-08T00:25:26.098Z,991.24
2019-03-08T00:26:26.069Z,991.02
2019-03-08T00:27:26.052Z,991.11
2019-03-08T00:28:26.028Z,991.14
2019-03-08T00:29:26.010Z,991.26
2019-03-08T00:30:25.992Z,991.31
2019-03-08T00:31:25.966Z,991.18
2019-03-08T00:32:25.944Z,991.25
2019-03-08T00:33:25.926Z,991.39
2019-03-08T00:34:25.906Z,991.18
2019-03-08T00:35:25.884Z,991.23
2019-03-08T00:36:25.862Z,991.30
2019-03-08T00:37:25.842Z,991.24
2019-03-08T00:38:25.833Z,991.34
2019-03-08T00:39:25.802Z,991.45
2019-03-08T00:40:25.786Z,991.36
2019-03-08T00:41:25.761Z,991.49
2019-03-08T00:42:25.738Z,991.44
2019-03-08T00:43:25.720Z,991.38
2019-03-08T00:44:25.697Z,991.49
2019-03-08T00:45:25.676Z,991.82
2019-03-08T00:46:25.657Z,991.41
2019-03-08T00:47:25.636Z,991.48
2019-03-08T00:48:25.615Z,991.63
2019-03-08T00:49:25.597Z,991.61
2019-03-08T00:50:25.573Z,991.57
2019-03-08T00:51:25.552Z,991.53
2019-03-08T00:52:25.532Z,991.59
2019-03-08T00:53:25.512Z,991.63
2019-03-08T00:54:25.494Z,991.75
2019-03-08T00:55:25.477Z,991.63
2019-03-08T00:56:25.463Z,991.71
2019-03-08T00:57:25.427Z,991.72
2019-03-08T00:58:25.417Z,991.71
2019-03-08T00:59:25.388Z,991.77
2019-03-08T01:00:25.368Z,991.78
2019-03-08T01:01:25.346Z,991.86
2019-03-08T01:02:25.325Z,991.87
2019-03-08T01:03:25.308Z,991.82
2019-03-08T01:04:25.285Z,991.90
2019-03-08T01:05:25.264Z,991.98
2019-03-08T01:06:25.244Z,991.86
2019-03-08T01:07:25.228Z,991.87
2019-03-08T01:08:25.198Z,991.90
2019-03-08T01:09:25.179Z,991.87
2019-03-08T01:10:25.208Z,991.83
2019-03-08T01:11:25.140Z,991.84
2019-03-08T01:12:25.115Z,991.85
2019-03-08T01:13:25.104Z,991.86
2019-03-08T01:14:25.074Z,991.81
2019-03-08T01:15:25.060Z,991.78
2019-03-08T01:16:26.066Z,991.97
2019-03-08T01:17:25.020Z,991.67
2019-03-08T01:18:24.995Z,991.72
2019-03-08T01:19:24.975Z,991.99
2019-03-08T01:20:24.950Z,992.05
2019-03-08T01:21:24.931Z,991.82
2019-03-08T01:22:24.910Z,991.88
2019-03-08T01:23:24.890Z,992.00
2019-03-08T01:24:24.869Z,991.85
2019-03-08T01:25:24.846Z,992.04
2019-03-08T01:26:24.831Z,991.91
2019-03-08T01:27:24.809Z,991.98
2019-03-08T01:28:24.787Z,991.94
2019-03-08T01:29:24.766Z,992.00
2019-03-08T01:30:24.743Z,992.07
2019-03-08T01:31:24.720Z,992.00
2019-03-08T01:32:24.697Z,992.19
2019-03-08T01:33:24.680Z,992.13
2019-03-08T01:34:24.658Z,992.07
2019-03-08T01:35:24.637Z,992.01
2019-03-08T01:36:24.617Z,992.10
2019-03-08T01:37:24.597Z,992.10
2019-03-08T01:38:24.579Z,992.22
2019-03-08T01:39:24.561Z,992.29
2019-03-08T01:40:24.535Z,992.22
2019-03-08T01:41:24.517Z,992.20
2019-03-08T01:42:24.493Z,992.30
2019-03-08T01:43:24.473Z,992.36
2019-03-08T01:44:24.452Z,992.34
2019-03-08T01:45:24.432Z,992.43
2019-03-08T01:46:24.486Z,992.63
2019-03-08T01:47:24.392Z,992.34
2019-03-08T01:48:24.370Z,992.50
2019-03-08T01:49:24.349Z,992.43
2019-03-08T01:50:30.598Z,992.61
2019-03-08T01:51:24.307Z,992.61
2019-03-08T01:52:43.490Z,992.63
2019-03-08T01:53:24.265Z,992.64
2019-03-08T01:54:24.304Z,992.62
2019-03-08T01:55:24.222Z,992.74
2019-03-08T01:56:24.331Z,992.75
2019-03-08T01:57:24.184Z,992.81
2019-03-08T01:58:24.207Z,992.85
2019-03-08T01:59:24.146Z,992.92
2019-03-08T02:00:24.116Z,993.00
2019-03-08T02:01:24.095Z,993.09
2019-03-08T02:02:24.076Z,993.16
2019-03-08T02:03:24.057Z,993.05
2019-03-08T02:04:24.040Z,993.19
2019-03-08T02:05:24.021Z,993.25
2019-03-08T02:06:23.993Z,993.24
2019-03-08T02:07:23.974Z,993.16
2019-03-08T02:08:23.948Z,993.13
2019-03-08T02:09:23.926Z,993.19
2019-03-08T02:10:23.910Z,993.10
2019-03-08T02:11:23.890Z,993.17
2019-03-08T02:12:23.872Z,993.21
2019-03-08T02:13:23.848Z,993.16
2019-03-08T02:14:23.825Z,993.26
2019-03-08T02:15:23.803Z,993.22
2019-03-08T02:16:23.794Z,993.22
2019-03-08T02:17:23.761Z,993.17
2019-03-08T02:18:23.744Z,993.22
2019-03-08T02:19:23.722Z,993.31
2019-03-08T02:20:23.698Z,993.12
2019-03-08T02:21:23.680Z,993.24
2019-03-08T02:22:23.704Z,993.22
2019-03-08T02:23:23.640Z,993.30
2019-03-08T02:24:23.616Z,993.29
2019-03-08T02:25:23.594Z,993.21
2019-03-08T02:26:23.576Z,993.21
2019-03-08T02:27:23.554Z,993.21
2019-03-08T02:28:23.529Z,993.17
2019-03-08T02:29:23.511Z,993.15
2019-03-08T02:30:23.489Z,993.25
2019-03-08T02:31:23.470Z,993.26
2019-03-08T02:32:23.452Z,993.28
2019-03-08T02:33:23.428Z,993.27
2019-03-08T02:34:23.405Z,993.23
2019-03-08T02:35:23.399Z,993.19
2019-03-08T02:36:23.367Z,993.26
2019-03-08T02:37:23.343Z,993.26
2019-03-08T02:38:23.322Z,993.19
2019-03-08T02:39:23.305Z,993.24
2019-03-08T02:40:23.281Z,993.34
2019-03-08T02:41:23.284Z,993.29
2019-03-08T02:42:23.239Z,993.30
2019-03-08T02:43:23.228Z,993.29
2019-03-08T02:44:23.197Z,993.26
2019-03-08T02:45:23.177Z,993.34
2019-03-08T02:46:23.157Z,993.28
2019-03-08T02:47:23.139Z,993.29
2019-03-08T02:48:23.119Z,993.39
2019-03-08T02:49:23.095Z,993.23
2019-03-08T02:50:23.075Z,993.26
2019-03-08T02:51:23.053Z,993.31
2019-03-08T02:52:23.034Z,993.24
2019-03-08T02:53:23.012Z,993.33
2019-03-08T02:54:22.990Z,993.25
2019-03-08T02:55:22.970Z,993.33
2019-03-08T02:56:22.951Z,993.49
2019-03-08T02:57:22.928Z,993.27
2019-03-08T02:58:22.909Z,993.29
2019-03-08T02:59:22.888Z,993.38
2019-03-08T03:00:22.864Z,993.39
2019-03-08T03:01:22.844Z,993.41
2019-03-08T03:02:22.823Z,993.44
2019-03-08T03:03:22.804Z,993.39
2019-03-08T03:04:22.785Z,993.42
2019-03-08T03:05:22.763Z,993.53
2019-03-08T03:06:22.739Z,993.70
2019-03-08T03:07:22.719Z,993.47
2019-03-08T03:08:22.698Z,993.46
2019-03-08T03:09:22.680Z,993.45
2019-03-08T03:10:22.659Z,993.52
2019-03-08T03:11:22.633Z,993.52
2019-03-08T03:12:22.613Z,993.50
2019-03-08T03:13:22.595Z,993.52
2019-03-08T03:14:22.573Z,993.55
2019-03-08T03:15:22.551Z,993.52
2019-03-08T03:16:22.550Z,993.58
2019-03-08T03:17:22.508Z,993.60
2019-03-08T03:18:22.488Z,993.67
2019-03-08T03:19:22.470Z,993.73
2019-03-08T03:20:22.453Z,993.73
2019-03-08T03:21:22.425Z,993.72
2019-03-08T03:22:22.413Z,993.77
2019-03-08T03:23:22.384Z,993.72
2019-03-08T03:24:22.361Z,993.75
2019-03-08T03:25:22.343Z,993.79
2019-03-08T03:26:22.321Z,993.84
2019-03-08T03:27:22.301Z,993.87
2019-03-08T03:28:22.279Z,994.00
2019-03-08T03:29:22.262Z,994.01
2019-03-08T03:30:22.285Z,994.08
2019-03-08T03:31:22.219Z,994.06
2019-03-08T03:32:22.203Z,994.00
2019-03-08T03:33:22.185Z,994.11
2019-03-08T03:34:22.154Z,994.13
2019-03-08T03:35:22.133Z,994.11
2019-03-08T03:36:22.113Z,994.24
2019-03-08T03:37:22.093Z,994.16
2019-03-08T03:38:22.079Z,994.16
2019-03-08T03:39:22.051Z,994.12
2019-03-08T03:40:22.046Z,994.19
2019-03-08T03:41:22.011Z,994.19
2019-03-08T03:42:21.990Z,994.20
2019-03-08T03:43:21.973Z,994.25
2019-03-08T03:44:21.993Z,994.21
2019-03-08T03:45:21.930Z,994.24
2019-03-08T03:46:21.909Z,994.28
2019-03-08T03:47:21.885Z,994.33
2019-03-08T03:48:21.864Z,994.34
2019-03-08T03:49:21.845Z,994.43
2019-03-08T03:50:21.822Z,994.30
2019-03-08T03:51:21.803Z,994.41
2019-03-08T03:52:21.782Z,994.44
2019-03-08T03:53:21.761Z,994.41
2019-03-08T03:54:21.739Z,994.53
2019-03-08T03:55:21.720Z,994.48
2019-03-08T03:56:21.695Z,994.64
2019-03-08T03:57:21.675Z,994.64
2019-03-08T03:58:21.656Z,994.60
2019-03-08T03:59:21.635Z,994.57
2019-03-08T04:00:21.618Z,994.72
2019-03-08T04:01:21.593Z,994.60
2019-03-08T04:02:22.241Z,994.68
2019-03-08T04:03:21.551Z,994.80
2019-03-08T04:04:21.529Z,994.79
2019-03-08T04:05:21.516Z,994.82
2019-03-08T04:06:21.491Z,994.85
2019-03-08T04:07:21.473Z,994.89
2019-03-08T04:08:21.446Z,994.83
2019-03-08T04:09:21.432Z,994.90
2019-03-08T04:10:21.408Z,994.93
2019-03-08T04:11:21.393Z,994.87
2019-03-08T04:12:21.364Z,994.91
2019-03-08T04:13:21.345Z,995.10
2019-03-08T04:14:21.334Z,995.03
2019-03-08T04:15:21.302Z,995.01
2019-03-08T04:16:21.281Z,995.04
2019-03-08T04:17:21.260Z,995.08
2019-03-08T04:18:21.240Z,995.10
2019-03-08T04:19:21.221Z,995.19
2019-03-08T04:20:21.197Z,995.17
2019-03-08T04:21:21.177Z,995.23
2019-03-08T04:22:21.157Z,995.18
2019-03-08T04:23:21.137Z,995.15
2019-03-08T04:24:21.117Z,995.19
2019-03-08T04:25:21.095Z,995.25
2019-03-08T04:26:21.087Z,995.22
2019-03-08T04:27:21.056Z,995.28
2019-03-08T04:28:21.041Z,995.21
2019-03-08T04:29:21.013Z,995.23
2019-03-08T04:30:20.996Z,995.36
2019-03-08T04:31:20.971Z,995.26
2019-03-08T04:32:20.948Z,995.22
2019-03-08T04:33:20.932Z,995.30
2019-03-08T04:34:20.910Z,995.33
2019-03-08T04:35:20.887Z,995.36
2019-03-08T04:36:20.869Z,995.27
2019-03-08T04:37:20.845Z,995.45
2019-03-08T04:38:20.825Z,995.38
2019-03-08T04:39:20.804Z,995.48
2019-03-08T04:40:20.785Z,995.37
2019-03-08T04:41:20.764Z,995.38
2019-03-08T04:42:20.747Z,995.48
2019-03-08T04:43:20.723Z,995.51
2019-03-08T04:44:20.702Z,995.48
2019-03-08T04:45:20.681Z,995.65
2019-03-08T04:46:20.657Z,995.58
2019-03-08T04:47:20.640Z,995.58
2019-03-08T04:48:20.618Z,995.65
2019-03-08T04:49:20.598Z,995.72
2019-03-08T04:50:20.580Z,995.63
2019-03-08T04:51:20.555Z,995.67
2019-03-08T04:52:20.534Z,995.70
2019-03-08T04:53:20.515Z,995.74
2019-03-08T04:54:20.498Z,995.83
2019-03-08T04:55:20.472Z,995.77
2019-03-08T04:56:20.452Z,995.88
2019-03-08T04:57:20.432Z,995.82
2019-03-08T04:58:20.411Z,995.87
2019-03-08T04:59:20.390Z,995.92
2019-03-08T05:00:20.372Z,995.92
2019-03-08T05:01:20.354Z,995.83
2019-03-08T05:02:20.328Z,995.88
2019-03-08T05:03:20.319Z,995.92
2019-03-08T05:04:20.288Z,995.92
2019-03-08T05:05:20.265Z,995.92
2019-03-08T05:06:20.243Z,995.94
2019-03-08T05:07:20.223Z,995.92
2019-03-08T05:08:20.203Z,995.98
2019-03-08T05:09:20.183Z,996.03
2019-03-08T05:10:20.163Z,996.08
2019-03-08T05:11:20.151Z,996.02
2019-03-08T05:12:20.119Z,996.04
2019-03-08T05:13:20.104Z,996.03
2019-03-08T05:14:20.078Z,996.26
2019-03-08T05:15:20.067Z,996.16
2019-03-08T05:16:20.037Z,996.07
2019-03-08T05:17:20.016Z,996.14
2019-03-08T05:18:19.998Z,996.25
2019-03-08T05:19:19.983Z,996.18
2019-03-08T05:20:19.958Z,996.19
2019-03-08T05:21:19.933Z,996.11
2019-03-08T05:22:19.916Z,996.21
2019-03-08T05:23:19.892Z,996.12
2019-03-08T05:24:19.870Z,996.16
2019-03-08T05:25:19.850Z,996.24
2019-03-08T05:26:19.828Z,996.24
2019-03-08T05:27:19.822Z,996.32
2019-03-08T05:28:19.789Z,996.25
2019-03-08T05:29:19.766Z,996.36
2019-03-08T05:30:19.746Z,996.38
2019-03-08T05:31:19.726Z,996.41
2019-03-08T05:32:19.713Z,996.39
2019-03-08T05:33:19.688Z,996.40
2019-03-08T05:34:19.666Z,996.46
2019-03-08T05:35:19.645Z,996.40
2019-03-08T05:36:19.623Z,996.41
2019-03-08T05:37:19.610Z,996.44
2019-03-08T05:38:19.583Z,996.50
2019-03-08T05:39:19.564Z,996.45
2019-03-08T05:40:19.539Z,996.45
2019-03-08T05:41:19.522Z,996.61
2019-03-08T05:42:19.500Z,996.46
2019-03-08T05:43:19.479Z,996.53
2019-03-08T05:44:19.459Z,996.50
2019-03-08T05:45:19.439Z,996.60
2019-03-08T05:46:19.420Z,996.73
2019-03-08T05:47:19.421Z,996.72
2019-03-08T05:48:19.378Z,996.74
2019-03-08T05:49:19.361Z,996.74
2019-03-08T05:50:19.335Z,996.73
2019-03-08T05:51:19.317Z,996.89
2019-03-08T05:52:19.289Z,996.95
2019-03-08T05:53:19.270Z,996.92
2019-03-08T05:54:19.250Z,996.96
2019-03-08T05:55:19.229Z,996.98
2019-03-08T05:56:19.212Z,997.04
2019-03-08T05:57:19.193Z,997.19
2019-03-08T05:58:19.167Z,997.08
2019-03-08T05:59:19.146Z,997.14
2019-03-08T06:00:19.125Z,997.26
2019-03-08T06:01:19.106Z,997.36
2019-03-08T06:02:19.085Z,997.29
2019-03-08T06:03:19.063Z,997.26
2019-03-08T06:04:19.042Z,997.36
2019-03-08T06:05:19.023Z,997.43
2019-03-08T06:06:19.002Z,997.34
2019-03-08T06:07:18.981Z,997.43
2019-03-08T06:08:18.961Z,997.50
2019-03-08T06:09:18.938Z,997.46
2019-03-08T06:10:18.927Z,997.51
2019-03-08T06:11:18.900Z,997.55
2019-03-08T06:12:18.875Z,997.59
2019-03-08T06:13:18.856Z,997.58
2019-03-08T06:14:18.840Z,997.60
2019-03-08T06:15:18.816Z,997.65
2019-03-08T06:16:18.791Z,997.71
2019-03-08T06:17:18.772Z,997.75
2019-03-08T06:18:18.752Z,997.72
2019-03-08T06:19:18.730Z,997.82
2019-03-08T06:20:18.713Z,997.78
2019-03-08T06:21:18.690Z,997.84
2019-03-08T06:22:18.673Z,997.75
2019-03-08T06:23:18.656Z,997.80
2019-03-08T06:24:18.625Z,997.89
2019-03-08T06:25:18.605Z,997.95
2019-03-08T06:26:18.585Z,997.92
2019-03-08T06:27:18.565Z,997.98
2019-03-08T06:28:18.543Z,998.01
2019-03-08T06:29:18.524Z,998.09
2019-03-08T06:30:18.506Z,998.09
2019-03-08T06:31:18.484Z,998.19
2019-03-08T06:32:18.460Z,998.13
2019-03-08T06:33:18.444Z,998.15
2019-03-08T06:34:18.419Z,998.18
2019-03-08T06:35:18.404Z,998.32
2019-03-08T06:36:18.376Z,998.34
2019-03-08T06:37:18.381Z,998.32
2019-03-08T06:38:18.336Z,998.46
2019-03-08T06:39:18.318Z,998.41
2019-03-08T06:40:18.294Z,998.40
2019-03-08T06:41:18.276Z,998.39
2019-03-08T06:42:18.260Z,998.54
2019-03-08T06:43:18.237Z,998.48
2019-03-08T06:44:18.212Z,998.52
2019-03-08T06:45:18.193Z,998.59
2019-03-08T06:46:18.174Z,998.64
2019-03-08T06:47:18.154Z,998.66
2019-03-08T06:48:18.141Z,998.75
2019-03-08T06:49:18.109Z,998.74
2019-03-08T06:50:18.097Z,998.75
2019-03-08T06:51:18.067Z,998.79
2019-03-08T06:52:18.046Z,998.90
2019-03-08T06:53:18.027Z,998.89
2019-03-08T06:54:18.008Z,999.04
2019-03-08T06:55:17.994Z,998.96
2019-03-08T06:56:17.966Z,998.96
2019-03-08T06:57:17.941Z,998.92
2019-03-08T06:58:17.923Z,999.04
2019-03-08T06:59:17.900Z,999.09
2019-03-08T07:00:17.882Z,999.17
2019-03-08T07:01:17.859Z,999.17
2019-03-08T07:02:17.839Z,999.16
2019-03-08T07:03:17.818Z,999.37
2019-03-08T07:04:17.807Z,999.27
2019-03-08T07:05:17.777Z,999.31
2019-03-08T07:06:17.763Z,999.37
2019-03-08T07:07:17.741Z,999.33
2019-03-08T07:08:17.724Z,999.35
2019-03-08T07:09:17.699Z,999.42
2019-03-08T07:10:17.678Z,999.33
2019-03-08T07:11:17.657Z,999.40
2019-03-08T07:12:17.633Z,999.53
2019-03-08T07:13:17.626Z,999.59
2019-03-08T07:14:17.593Z,999.53
2019-03-08T07:15:17.574Z,999.62
2019-03-08T07:16:17.557Z,999.56
2019-03-08T07:17:17.533Z,999.74
2019-03-08T07:18:17.516Z,999.67
2019-03-08T07:19:17.489Z,999.82
2019-03-08T07:20:17.471Z,999.70
2019-03-08T07:21:17.445Z,999.78
2019-03-08T07:22:17.429Z,999.80
2019-03-08T07:23:17.409Z,999.77
2019-03-08T07:24:17.389Z,999.86
2019-03-08T07:25:17.363Z,999.86
2019-03-08T07:26:17.344Z,999.97
2019-03-08T07:27:17.321Z,1000.01
2019-03-08T07:28:17.301Z,1000.04
2019-03-08T07:29:17.292Z,1000.06
2019-03-08T07:30:17.264Z,1000.14
2019-03-08T07:31:17.241Z,1000.17
2019-03-08T07:32:17.641Z,1000.20
2019-03-08T07:33:17.200Z,1000.27
2019-03-08T07:34:17.178Z,1000.30
2019-03-08T07:35:17.202Z,1000.31
2019-03-08T07:36:17.138Z,1000.39
2019-03-08T07:37:17.130Z,1000.37
2019-03-08T07:38:17.097Z,1000.41
2019-03-08T07:39:17.089Z,1000.44
2019-03-08T07:40:17.061Z,1000.53
2019-03-08T07:41:17.039Z,1000.51
2019-03-08T07:42:17.015Z,1000.63
2019-03-08T07:43:17.006Z,1000.67
2019-03-08T07:44:16.984Z,1000.67
2019-03-08T07:45:16.956Z,1000.74
2019-03-08T07:46:16.934Z,1000.81
2019-03-08T07:47:16.912Z,1000.71
2019-03-08T07:48:16.895Z,1000.84
2019-03-08T07:49:16.870Z,1000.78
2019-03-08T07:50:16.851Z,1000.86
2019-03-08T07:51:16.830Z,1000.80
2019-03-08T07:52:16.809Z,1000.92
2019-03-08T07:53:16.789Z,1000.78
2019-03-08T07:54:16.769Z,1000.82
2019-03-08T07:55:16.748Z,1000.92
2019-03-08T07:56:16.733Z,1000.98
2019-03-08T07:57:16.711Z,1000.98
2019-03-08T07:58:16.690Z,1001.03
2019-03-08T07:59:16.671Z,1001.19
2019-03-08T08:00:16.649Z,1001.18
2019-03-08T08:01:16.640Z,1001.44
2019-03-08T08:02:16.615Z,1001.57
2019-03-08T08:03:16.594Z,1001.41
2019-03-08T08:04:16.577Z,1001.32
2019-03-08T08:05:16.559Z,1001.37
2019-03-08T08:06:16.544Z,1001.42
2019-03-08T08:07:16.531Z,1001.48
2019-03-08T08:08:16.509Z,1001.33
2019-03-08T08:09:16.491Z,1001.49
2019-03-08T08:10:16.470Z,1001.44
2019-03-08T08:11:16.453Z,1001.51
2019-03-08T08:12:16.438Z,1001.59
2019-03-08T08:13:16.423Z,1001.60
2019-03-08T08:14:16.397Z,1001.76
2019-03-08T08:15:16.393Z,1001.64
2019-03-08T08:16:16.362Z,1001.57
2019-03-08T08:17:16.360Z,1001.56
2019-03-08T08:18:16.327Z,1001.59
2019-03-08T08:19:16.310Z,1001.59
2019-03-08T08:20:16.819Z,1001.54
2019-03-08T08:21:16.274Z,1001.60
2019-03-08T08:22:16.253Z,1001.65
2019-03-08T08:23:16.239Z,1002.08
2019-03-08T08:24:16.220Z,1001.99
2019-03-08T08:25:16.203Z,1001.77
2019-03-08T08:26:16.183Z,1001.77
2019-03-08T08:27:16.167Z,1002.38
2019-03-08T08:28:16.150Z,1002.50
2019-03-08T08:29:16.130Z,1002.46
2019-03-08T08:30:16.121Z,1002.65
2019-03-08T08:31:16.106Z,1002.60
2019-03-08T08:32:16.087Z,1002.62
2019-03-08T08:33:16.831Z,1002.32
2019-03-08T08:34:16.064Z,1002.73
2019-03-08T08:35:16.056Z,1002.77
2019-03-08T08:36:16.034Z,1002.89
2019-03-08T08:37:16.028Z,1002.36
2019-03-08T08:38:16.012Z,1002.56
2019-03-08T08:39:16.005Z,1002.24
2019-03-08T08:40:15.990Z,1002.20
2019-03-08T08:41:15.978Z,1002.24
2019-03-08T08:42:15.964Z,1002.31
2019-03-08T08:43:15.957Z,1002.27
2019-03-08T08:44:15.939Z,1002.32
2019-03-08T08:45:15.925Z,1002.28
2019-03-08T08:46:15.914Z,1002.29
2019-03-08T08:47:15.896Z,1002.32
2019-03-08T08:48:15.882Z,1002.31
2019-03-08T08:49:15.865Z,1002.34
2019-03-08T08:50:15.851Z,1002.33
2019-03-08T08:51:15.835Z,1002.40
2019-03-08T08:52:15.815Z,1002.46
2019-03-08T08:53:15.802Z,1002.44
2019-03-08T08:54:15.799Z,1002.48
2019-03-08T08:55:15.771Z,1002.50
2019-03-08T08:56:15.752Z,1002.58
2019-03-08T08:57:15.735Z,1002.55
2019-03-08T08:58:15.720Z,1002.58
2019-03-08T08:59:15.703Z,1002.65
2019-03-08T09:00:15.690Z,1002.62
2019-03-08T09:01:15.667Z,1002.65
2019-03-08T09:02:15.653Z,1002.67
2019-03-08T09:03:15.631Z,1002.62
2019-03-08T09:04:15.620Z,1002.62
2019-03-08T09:05:15.597Z,1002.68
2019-03-08T09:06:15.577Z,1002.69
2019-03-08T09:07:15.570Z,1002.74
2019-03-08T09:08:15.547Z,1002.81
2019-03-08T09:09:15.524Z,1002.87
2019-03-08T09:10:15.506Z,1002.82
2019-03-08T09:11:15.492Z,1002.76
2019-03-08T09:12:15.473Z,1002.80
2019-03-08T09:13:15.451Z,1002.82
2019-03-08T09:14:15.433Z,1002.90
2019-03-08T09:15:15.421Z,1003.01
2019-03-08T09:16:15.395Z,1003.04
2019-03-08T09:17:15.382Z,1003.09
2019-03-08T09:18:15.360Z,1003.01
2019-03-08T09:19:15.342Z,1003.01
2019-03-08T09:20:15.325Z,1002.98
2019-03-08T09:21:15.306Z,1003.02
2019-03-08T09:22:15.292Z,1003.04
2019-03-08T09:23:15.272Z,1003.26
2019-03-08T09:24:15.253Z,1003.12
2019-03-08T09:25:15.240Z,1003.20
2019-03-08T09:26:15.217Z,1003.37
2019-03-08T09:27:15.198Z,1003.24
2019-03-08T09:28:15.175Z,1003.19
2019-03-08T09:29:15.159Z,1003.26
2019-03-08T09:30:15.140Z,1003.20
2019-03-08T09:31:15.119Z,1003.18
2019-03-08T09:32:15.099Z,1003.19
2019-03-08T09:33:15.080Z,1003.28
2019-03-08T09:34:15.062Z,1003.27
2019-03-08T09:35:15.048Z,1003.32
2019-03-08T09:36:15.020Z,1003.33
2019-03-08T09:37:15.004Z,1003.55
2019-03-08T09:38:14.985Z,1003.70
2019-03-08T09:39:14.970Z,1004.06
2019-03-08T09:40:14.956Z,1004.10
2019-03-08T09:41:14.936Z,1004.13
2019-03-08T09:42:14.920Z,1004.06
2019-03-08T09:43:14.908Z,1004.24
2019-03-08T09:44:14.886Z,1004.12
2019-03-08T09:45:14.869Z,1004.20
2019-03-08T09:46:14.858Z,1004.24
2019-03-08T09:47:14.839Z,1004.29
2019-03-08T09:48:14.836Z,1004.29
2019-03-08T09:49:14.817Z,1003.96
2019-03-08T09:50:14.803Z,1004.28
2019-03-08T09:51:14.801Z,1004.39
2019-03-08T09:52:14.778Z,1004.31
2019-03-08T09:53:14.763Z,1003.89
2019-03-08T09:54:14.751Z,1003.91
2019-03-08T09:55:14.744Z,1004.56
2019-03-08T09:56:14.727Z,1004.17
2019-03-08T09:57:14.719Z,1004.36
2019-03-08T09:58:14.709Z,1004.61
2019-03-08T09:59:14.694Z,1003.91
2019-03-08T10:00:14.682Z,1004.66
2019-03-08T10:01:16.800Z,1004.49
2019-03-08T10:02:14.657Z,1004.71
2019-03-08T10:03:14.655Z,1004.08
2019-03-08T10:04:14.635Z,1003.99
2019-03-08T10:05:14.621Z,1004.23
2019-03-08T10:06:14.608Z,1004.18
2019-03-08T10:07:14.601Z,1004.26
2019-03-08T10:08:14.593Z,1004.18
2019-03-08T10:09:14.570Z,1004.18
2019-03-08T10:10:14.571Z,1004.16
2019-03-08T10:11:14.548Z,1004.19
2019-03-08T10:12:14.537Z,1004.20
2019-03-08T10:13:14.525Z,1004.13
2019-03-08T10:14:14.512Z,1004.13
2019-03-08T10:15:14.503Z,1004.10
2019-03-08T10:16:14.501Z,1004.13
2019-03-08T10:17:14.484Z,1004.20
2019-03-08T10:18:14.480Z,1004.11
2019-03-08T10:19:14.458Z,1004.02
2019-03-08T10:20:14.442Z,1004.10
2019-03-08T10:21:14.443Z,1004.37
2019-03-08T10:22:14.422Z,1004.28
2019-03-08T10:23:19.867Z,1004.12
2019-03-08T10:24:14.416Z,1004.05
2019-03-08T10:25:14.385Z,1004.23
2019-03-08T10:26:14.376Z,1004.12
2019-03-08T10:27:14.646Z,1004.20
2019-03-08T10:28:14.382Z,1004.19
2019-03-08T10:29:14.343Z,1004.27
2019-03-08T10:30:14.337Z,1004.36
2019-03-08T10:31:14.317Z,1004.30
2019-03-08T10:32:14.303Z,1004.43
2019-03-08T10:33:14.295Z,1004.45
2019-03-08T10:34:14.275Z,1004.48
2019-03-08T10:35:23.278Z,1004.43
2019-03-08T10:36:14.249Z,1004.37
2019-03-08T10:37:14.235Z,1004.31
2019-03-08T10:38:22.408Z,1004.44
2019-03-08T10:39:14.208Z,1004.31
2019-03-08T10:40:14.195Z,1004.43
2019-03-08T10:41:14.185Z,1004.49
2019-03-08T10:42:14.168Z,1004.45
2019-03-08T10:43:14.156Z,1004.48
2019-03-08T10:44:15.571Z,1004.51
2019-03-08T10:45:14.126Z,1004.51
2019-03-08T10:46:15.942Z,1004.59
2019-03-08T10:47:14.096Z,1004.62
2019-03-08T10:48:14.081Z,1004.57
2019-03-08T10:49:14.066Z,1004.50
2019-03-08T10:50:14.050Z,1004.53
2019-03-08T10:51:14.039Z,1004.66
2019-03-08T10:52:17.744Z,1004.54
2019-03-08T10:53:14.014Z,1004.65
2019-03-08T10:54:13.997Z,1004.78
2019-03-08T10:55:13.975Z,1004.76
2019-03-08T10:56:13.968Z,1004.79
2019-03-08T10:57:13.945Z,1004.67
2019-03-08T10:58:13.936Z,1004.84
2019-03-08T10:59:13.920Z,1004.92
2019-03-08T11:00:13.900Z,1004.80
2019-03-08T11:01:13.888Z,1004.75
2019-03-08T11:02:13.879Z,1004.88
2019-03-08T11:03:13.864Z,1004.79
2019-03-08T11:04:14.844Z,1004.76
2019-03-08T11:05:13.838Z,1004.73
2019-03-08T11:06:13.816Z,1004.75
2019-03-08T11:07:13.799Z,1004.89
2019-03-08T11:08:13.782Z,1004.93
2019-03-08T11:09:13.770Z,1004.96
2019-03-08T11:10:13.763Z,1005.06
2019-03-08T11:11:13.745Z,1005.14
2019-03-08T11:12:13.735Z,1005.11
2019-03-08T11:13:13.711Z,1005.14
2019-03-08T11:14:13.702Z,1005.18
2019-03-08T11:15:13.678Z,1005.07
2019-03-08T11:16:13.673Z,1005.05
2019-03-08T11:17:13.649Z,1005.08
2019-03-08T11:18:13.638Z,1005.15
2019-03-08T11:19:13.618Z,1005.27
2019-03-08T11:20:13.602Z,1005.21
2019-03-08T11:21:14.960Z,1005.24
2019-03-08T11:22:13.576Z,1005.29
2019-03-08T11:23:13.574Z,1005.18
2019-03-08T11:24:13.541Z,1005.22
2019-03-08T11:25:13.534Z,1005.25
2019-03-08T11:26:13.522Z,1005.29
2019-03-08T11:27:13.498Z,1005.33
2019-03-08T11:28:20.875Z,1005.33
2019-03-08T11:29:13.465Z,1005.25
2019-03-08T11:30:13.448Z,1005.27
2019-03-08T11:31:13.441Z,1005.23
2019-03-08T11:32:22.478Z,1005.18
2019-03-08T11:33:13.403Z,1005.21
2019-03-08T11:34:13.398Z,1005.20
2019-03-08T11:35:13.372Z,1005.25
2019-03-08T11:36:13.358Z,1005.29
2019-03-08T11:37:13.358Z,1005.33
2019-03-08T11:38:13.332Z,1005.29
2019-03-08T11:39:13.321Z,1005.28
2019-03-08T11:40:13.298Z,1005.28
2019-03-08T11:41:14.613Z,1005.32
2019-03-08T11:42:13.269Z,1005.31
2019-03-08T11:43:13.249Z,1005.45
2019-03-08T11:44:13.232Z,1005.24
2019-03-08T11:45:13.220Z,1005.33
2019-03-08T11:46:13.211Z,1005.44
2019-03-08T11:47:13.186Z,1005.26
2019-03-08T11:48:13.173Z,1005.35
2019-03-08T11:49:13.153Z,1005.38
2019-03-08T11:50:13.142Z,1005.42
2019-03-08T11:51:13.127Z,1005.52
2019-03-08T11:52:13.109Z,1005.45
2019-03-08T11:53:13.089Z,1005.42
2019-03-08T11:54:13.079Z,1005.52
2019-03-08T11:55:13.058Z,1005.56
2019-03-08T11:56:13.040Z,1005.55
2019-03-08T11:57:13.026Z,1005.60
2019-03-08T11:58:13.014Z,1005.74
2019-03-08T11:59:12.993Z,1005.64
2019-03-08T12:00:12.979Z,1005.68
2019-03-08T12:01:12.958Z,1005.71
2019-03-08T12:02:12.943Z,1005.72
2019-03-08T12:03:12.929Z,1005.69
2019-03-08T12:04:12.919Z,1005.83
2019-03-08T12:05:12.891Z,1005.82
2019-03-08T12:06:12.873Z,1005.81
2019-03-08T12:07:12.862Z,1005.85
2019-03-08T12:08:12.837Z,1005.82
2019-03-08T12:09:12.823Z,1005.93
2019-03-08T12:10:12.812Z,1005.93
2019-03-08T12:11:12.784Z,1005.96
2019-03-08T12:12:12.768Z,1005.97
2019-03-08T12:13:12.753Z,1006.05
2019-03-08T12:14:12.734Z,1006.06
2019-03-08T12:15:14.455Z,1006.10
2019-03-08T12:16:12.697Z,1006.02
2019-03-08T12:17:12.677Z,1006.08
2019-03-08T12:18:12.660Z,1006.05
2019-03-08T12:19:12.641Z,1006.06